sensor_id;sensor_type;location;lat;lon;timestamp;pressure;altitude;pressure_sealevel;temperature
66403;BMP180;53212;52.112;5.144;2023-04-09T00:01:09;102620.60;;;8.78
66403;BMP180;53212;52.112;5.144;2023-04-09T00:03:36;102618.60;;;8.78
66403;BMP180;53212;52.112;5.144;2023-04-09T00:06:03;102622.20;;;8.80
66403;BMP180;53212;52.112;5.144;2023-04-09T00:08:28;102621.60;;;8.80
66403;BMP180;53212;52.112;5.144;2023-04-09T00:10:56;102623.40;;;8.90
66403;BMP180;53212;52.112;5.144;2023-04-09T00:13:22;102619.00;;;8.90
66403;BMP180;53212;52.112;5.144;2023-04-09T00:15:47;102614.80;;;8.90
66403;BMP180;53212;52.112;5.144;2023-04-09T00:18:13;102614.60;;;8.90
66403;BMP180;53212;52.112;5.144;2023-04-09T00:20:39;102617.00;;;8.96
66403;BMP180;53212;52.112;5.144;2023-04-09T00:23:04;102616.40;;;9.00
66403;BMP180;53212;52.112;5.144;2023-04-09T00:25:30;102612.80;;;9.00
66403;BMP180;53212;52.112;5.144;2023-04-09T00:27:56;102609.40;;;9.00
66403;BMP180;53212;52.112;5.144;2023-04-09T00:30:21;102610.80;;;9.00
66403;BMP180;53212;52.112;5.144;2023-04-09T00:32:47;102603.20;;;9.00
66403;BMP180;53212;52.112;5.144;2023-04-09T00:35:13;102602.20;;;9.10
66403;BMP180;53212;52.112;5.144;2023-04-09T00:37:38;102598.20;;;9.10
66403;BMP180;53212;52.112;5.144;2023-04-09T00:40:05;102598.40;;;9.10
66403;BMP180;53212;52.112;5.144;2023-04-09T00:42:35;102596.60;;;9.10
66403;BMP180;53212;52.112;5.144;2023-04-09T00:45:02;102594.80;;;9.10
66403;BMP180;53212;52.112;5.144;2023-04-09T00:47:29;102588.60;;;9.20
66403;BMP180;53212;52.112;5.144;2023-04-09T00:49:56;102589.20;;;9.20
66403;BMP180;53212;52.112;5.144;2023-04-09T00:52:22;102587.40;;;9.20
66403;BMP180;53212;52.112;5.144;2023-04-09T00:54:50;102583.20;;;9.20
66403;BMP180;53212;52.112;5.144;2023-04-09T00:57:17;102582.40;;;9.20
66403;BMP180;53212;52.112;5.144;2023-04-09T00:59:43;102581.20;;;9.20
66403;BMP180;53212;52.112;5.144;2023-04-09T01:02:09;102577.60;;;9.24
66403;BMP180;53212;52.112;5.144;2023-04-09T01:04:35;102576.20;;;9.28
66403;BMP180;53212;52.112;5.144;2023-04-09T01:10:19;102574.80;;;9.20
66403;BMP180;53212;52.112;5.144;2023-04-09T01:13:22;102571.20;;;9.24
66403;BMP180;53212;52.112;5.144;2023-04-09T01:15:59;102571.00;;;9.20
66403;BMP180;53212;52.112;5.144;2023-04-09T01:18:34;102569.00;;;9.28
66403;BMP180;53212;52.112;5.144;2023-04-09T01:21:13;102570.20;;;9.26
66403;BMP180;53212;52.112;5.144;2023-04-09T01:27:05;102564.00;;;9.28
66403;BMP180;53212;52.112;5.144;2023-04-09T01:29:54;102561.20;;;9.26
66403;BMP180;53212;52.112;5.144;2023-04-09T01:32:20;102557.00;;;9.30
66403;BMP180;53212;52.112;5.144;2023-04-09T01:34:47;102560.60;;;9.30
66403;BMP180;53212;52.112;5.144;2023-04-09T01:37:14;102562.20;;;9.30
66403;BMP180;53212;52.112;5.144;2023-04-09T01:39:40;102561.60;;;9.30
66403;BMP180;53212;52.112;5.144;2023-04-09T01:42:08;102569.20;;;9.30
66403;BMP180;53212;52.112;5.144;2023-04-09T01:44:38;102560.00;;;9.30
66403;BMP180;53212;52.112;5.144;2023-04-09T01:47:05;102562.20;;;9.30
66403;BMP180;53212;52.112;5.144;2023-04-09T01:49:31;102563.00;;;9.34
66403;BMP180;53212;52.112;5.144;2023-04-09T01:51:57;102561.00;;;9.32
66403;BMP180;53212;52.112;5.144;2023-04-09T01:54:22;102561.60;;;9.40
66403;BMP180;53212;52.112;5.144;2023-04-09T01:56:48;102569.20;;;9.40
66403;BMP180;53212;52.112;5.144;2023-04-09T01:59:14;102567.80;;;9.40
66403;BMP180;53212;52.112;5.144;2023-04-09T02:01:57;102563.00;;;9.40
66403;BMP180;53212;52.112;5.144;2023-04-09T02:04:36;102564.40;;;9.40
66403;BMP180;53212;52.112;5.144;2023-04-09T02:07:14;102568.40;;;9.42
66403;BMP180;53212;52.112;5.144;2023-04-09T02:09:43;102565.80;;;9.40
66403;BMP180;53212;52.112;5.144;2023-04-09T02:12:13;102564.40;;;9.44
66403;BMP180;53212;52.112;5.144;2023-04-09T02:14:41;102564.20;;;9.42
66403;BMP180;53212;52.112;5.144;2023-04-09T02:17:07;102561.80;;;9.50
66403;BMP180;53212;52.112;5.144;2023-04-09T02:22:04;102561.40;;;9.40
66403;BMP180;53212;52.112;5.144;2023-04-09T02:24:30;102559.80;;;9.40
66403;BMP180;53212;52.112;5.144;2023-04-09T02:26:55;102556.20;;;9.40
66403;BMP180;53212;52.112;5.144;2023-04-09T02:29:22;102555.40;;;9.40
66403;BMP180;53212;52.112;5.144;2023-04-09T02:31:47;102553.80;;;9.40
66403;BMP180;53212;52.112;5.144;2023-04-09T02:34:14;102553.20;;;9.40
66403;BMP180;53212;52.112;5.144;2023-04-09T02:36:39;102552.80;;;9.40
66403;BMP180;53212;52.112;5.144;2023-04-09T02:39:05;102545.80;;;9.40
66403;BMP180;53212;52.112;5.144;2023-04-09T02:41:30;102553.80;;;9.40
66403;BMP180;53212;52.112;5.144;2023-04-09T02:43:55;102551.40;;;9.40
66403;BMP180;53212;52.112;5.144;2023-04-09T02:46:21;102547.00;;;9.50
66403;BMP180;53212;52.112;5.144;2023-04-09T02:48:46;102548.40;;;9.50
66403;BMP180;53212;52.112;5.144;2023-04-09T02:51:11;102540.80;;;9.50
66403;BMP180;53212;52.112;5.144;2023-04-09T02:53:37;102538.40;;;9.50
66403;BMP180;53212;52.112;5.144;2023-04-09T02:56:05;102537.20;;;9.50
66403;BMP180;53212;52.112;5.144;2023-04-09T02:58:30;102539.20;;;9.50
66403;BMP180;53212;52.112;5.144;2023-04-09T03:00:56;102535.60;;;9.50
66403;BMP180;53212;52.112;5.144;2023-04-09T03:03:21;102533.80;;;9.50
66403;BMP180;53212;52.112;5.144;2023-04-09T03:05:47;102533.00;;;9.50
66403;BMP180;53212;52.112;5.144;2023-04-09T03:08:12;102528.60;;;9.44
66403;BMP180;53212;52.112;5.144;2023-04-09T03:10:37;102529.20;;;9.40
66403;BMP180;53212;52.112;5.144;2023-04-09T03:13:03;102525.60;;;9.40
66403;BMP180;53212;52.112;5.144;2023-04-09T03:15:28;102523.20;;;9.46
66403;BMP180;53212;52.112;5.144;2023-04-09T03:17:54;102521.40;;;9.50
66403;BMP180;53212;52.112;5.144;2023-04-09T03:20:19;102522.00;;;9.50
66403;BMP180;53212;52.112;5.144;2023-04-09T03:22:45;102522.60;;;9.50
66403;BMP180;53212;52.112;5.144;2023-04-09T03:25:10;102516.80;;;9.50
66403;BMP180;53212;52.112;5.144;2023-04-09T03:27:36;102512.60;;;9.50
66403;BMP180;53212;52.112;5.144;2023-04-09T03:30:01;102517.00;;;9.50
66403;BMP180;53212;52.112;5.144;2023-04-09T03:32:27;102516.40;;;9.50
66403;BMP180;53212;52.112;5.144;2023-04-09T03:34:52;102518.00;;;9.50
66403;BMP180;53212;52.112;5.144;2023-04-09T03:37:18;102517.20;;;9.40
66403;BMP180;53212;52.112;5.144;2023-04-09T03:39:43;102514.00;;;9.40
66403;BMP180;53212;52.112;5.144;2023-04-09T03:42:09;102516.00;;;9.40
66403;BMP180;53212;52.112;5.144;2023-04-09T03:44:34;102508.80;;;9.40
66403;BMP180;53212;52.112;5.144;2023-04-09T03:47:00;102501.20;;;9.40
66403;BMP180;53212;52.112;5.144;2023-04-09T03:49:25;102502.60;;;9.40
66403;BMP180;53212;52.112;5.144;2023-04-09T03:51:50;102503.40;;;9.40
66403;BMP180;53212;52.112;5.144;2023-04-09T03:54:16;102507.60;;;9.40
66403;BMP180;53212;52.112;5.144;2023-04-09T03:56:41;102499.60;;;9.40
66403;BMP180;53212;52.112;5.144;2023-04-09T03:59:07;102501.80;;;9.40
66403;BMP180;53212;52.112;5.144;2023-04-09T04:01:32;102501.00;;;9.40
66403;BMP180;53212;52.112;5.144;2023-04-09T04:03:59;102498.00;;;9.40
66403;BMP180;53212;52.112;5.144;2023-04-09T04:06:24;102498.40;;;9.40
66403;BMP180;53212;52.112;5.144;2023-04-09T04:08:51;102497.80;;;9.40
66403;BMP180;53212;52.112;5.144;2023-04-09T04:11:16;102492.20;;;9.40
66403;BMP180;53212;52.112;5.144;2023-04-09T04:13:42;102493.80;;;9.38
66403;BMP180;53212;52.112;5.144;2023-04-09T04:16:08;102491.20;;;9.30
66403;BMP180;53212;52.112;5.144;2023-04-09T04:18:35;102487.20;;;9.30
66403;BMP180;53212;52.112;5.144;2023-04-09T04:21:01;102490.20;;;9.30
66403;BMP180;53212;52.112;5.144;2023-04-09T04:23:27;102488.80;;;9.30
66403;BMP180;53212;52.112;5.144;2023-04-09T04:25:52;102489.60;;;9.32
66403;BMP180;53212;52.112;5.144;2023-04-09T04:28:18;102488.20;;;9.38
66403;BMP180;53212;52.112;5.144;2023-04-09T04:30:43;102483.60;;;9.30
66403;BMP180;53212;52.112;5.144;2023-04-09T04:33:09;102486.80;;;9.30
66403;BMP180;53212;52.112;5.144;2023-04-09T04:35:34;102485.60;;;9.30
66403;BMP180;53212;52.112;5.144;2023-04-09T04:38:00;102484.00;;;9.30
66403;BMP180;53212;52.112;5.144;2023-04-09T04:40:26;102486.60;;;9.30
66403;BMP180;53212;52.112;5.144;2023-04-09T04:42:51;102487.60;;;9.30
66403;BMP180;53212;52.112;5.144;2023-04-09T04:45:17;102482.80;;;9.30
66403;BMP180;53212;52.112;5.144;2023-04-09T04:47:42;102480.80;;;9.30
66403;BMP180;53212;52.112;5.144;2023-04-09T04:50:08;102486.20;;;9.30
66403;BMP180;53212;52.112;5.144;2023-04-09T04:52:35;102487.80;;;9.30
66403;BMP180;53212;52.112;5.144;2023-04-09T04:55:00;102486.20;;;9.30
66403;BMP180;53212;52.112;5.144;2023-04-09T04:57:26;102487.60;;;9.30
66403;BMP180;53212;52.112;5.144;2023-04-09T04:59:51;102490.00;;;9.30
66403;BMP180;53212;52.112;5.144;2023-04-09T05:02:17;102493.20;;;9.30
66403;BMP180;53212;52.112;5.144;2023-04-09T05:04:42;102494.20;;;9.30
66403;BMP180;53212;52.112;5.144;2023-04-09T05:07:07;102491.20;;;9.30
66403;BMP180;53212;52.112;5.144;2023-04-09T05:09:33;102494.80;;;9.30
66403;BMP180;53212;52.112;5.144;2023-04-09T05:11:58;102487.40;;;9.30
66403;BMP180;53212;52.112;5.144;2023-04-09T05:14:24;102490.20;;;9.30
66403;BMP180;53212;52.112;5.144;2023-04-09T05:16:49;102488.40;;;9.30
66403;BMP180;53212;52.112;5.144;2023-04-09T05:19:16;102486.80;;;9.32
66403;BMP180;53212;52.112;5.144;2023-04-09T05:21:41;102486.60;;;9.40
66403;BMP180;53212;52.112;5.144;2023-04-09T05:24:07;102490.20;;;9.40
66403;BMP180;53212;52.112;5.144;2023-04-09T05:26:32;102488.40;;;9.40
66403;BMP180;53212;52.112;5.144;2023-04-09T05:28:58;102496.00;;;9.40
66403;BMP180;53212;52.112;5.144;2023-04-09T05:31:23;102502.40;;;9.40
66403;BMP180;53212;52.112;5.144;2023-04-09T05:33:49;102504.40;;;9.50
66403;BMP180;53212;52.112;5.144;2023-04-09T05:36:16;102502.40;;;9.50
66403;BMP180;53212;52.112;5.144;2023-04-09T05:38:43;102501.80;;;9.50
66403;BMP180;53212;52.112;5.144;2023-04-09T05:41:08;102501.80;;;9.50
66403;BMP180;53212;52.112;5.144;2023-04-09T05:43:34;102498.80;;;9.60
66403;BMP180;53212;52.112;5.144;2023-04-09T05:45:59;102501.20;;;9.60
66403;BMP180;53212;52.112;5.144;2023-04-09T05:48:25;102503.60;;;9.60
66403;BMP180;53212;52.112;5.144;2023-04-09T05:50:51;102499.40;;;9.60
66403;BMP180;53212;52.112;5.144;2023-04-09T05:53:18;102501.80;;;9.60
66403;BMP180;53212;52.112;5.144;2023-04-09T05:55:45;102504.20;;;9.66
66403;BMP180;53212;52.112;5.144;2023-04-09T05:58:12;102505.40;;;9.70
66403;BMP180;53212;52.112;5.144;2023-04-09T06:00:38;102506.40;;;9.70
66403;BMP180;53212;52.112;5.144;2023-04-09T06:03:04;102503.40;;;9.60
66403;BMP180;53212;52.112;5.144;2023-04-09T06:05:29;102505.40;;;9.60
66403;BMP180;53212;52.112;5.144;2023-04-09T06:07:55;102508.60;;;9.60
66403;BMP180;53212;52.112;5.144;2023-04-09T06:10:21;102507.20;;;9.60
66403;BMP180;53212;52.112;5.144;2023-04-09T06:12:46;102508.20;;;9.60
66403;BMP180;53212;52.112;5.144;2023-04-09T06:15:12;102514.00;;;9.60
66403;BMP180;53212;52.112;5.144;2023-04-09T06:17:37;102516.40;;;9.60
66403;BMP180;53212;52.112;5.144;2023-04-09T06:20:03;102518.60;;;9.60
66403;BMP180;53212;52.112;5.144;2023-04-09T06:22:29;102521.80;;;9.62
66403;BMP180;53212;52.112;5.144;2023-04-09T06:24:54;102518.40;;;9.60
66403;BMP180;53212;52.112;5.144;2023-04-09T06:27:20;102521.60;;;9.60
66403;BMP180;53212;52.112;5.144;2023-04-09T06:29:46;102520.80;;;9.60
66403;BMP180;53212;52.112;5.144;2023-04-09T06:32:12;102527.20;;;9.60
66403;BMP180;53212;52.112;5.144;2023-04-09T06:34:37;102522.80;;;9.60
66403;BMP180;53212;52.112;5.144;2023-04-09T06:37:03;102522.60;;;9.60
66403;BMP180;53212;52.112;5.144;2023-04-09T06:39:28;102521.60;;;9.60
66403;BMP180;53212;52.112;5.144;2023-04-09T06:41:54;102522.40;;;9.64
66403;BMP180;53212;52.112;5.144;2023-04-09T06:44:19;102521.00;;;9.60
66403;BMP180;53212;52.112;5.144;2023-04-09T06:46:46;102524.80;;;9.60
66403;BMP180;53212;52.112;5.144;2023-04-09T06:49:11;102526.60;;;9.60
66403;BMP180;53212;52.112;5.144;2023-04-09T06:51:37;102525.60;;;9.62
66403;BMP180;53212;52.112;5.144;2023-04-09T06:54:02;102526.80;;;9.70
66403;BMP180;53212;52.112;5.144;2023-04-09T06:56:28;102526.60;;;9.70
66403;BMP180;53212;52.112;5.144;2023-04-09T06:58:53;102528.20;;;9.70
66403;BMP180;53212;52.112;5.144;2023-04-09T07:01:19;102525.80;;;9.70
66403;BMP180;53212;52.112;5.144;2023-04-09T07:03:45;102524.40;;;9.80
66403;BMP180;53212;52.112;5.144;2023-04-09T07:06:10;102529.60;;;9.80
66403;BMP180;53212;52.112;5.144;2023-04-09T07:08:36;102534.20;;;9.80
66403;BMP180;53212;52.112;5.144;2023-04-09T07:11:01;102534.00;;;9.80
66403;BMP180;53212;52.112;5.144;2023-04-09T07:13:27;102534.80;;;9.80
66403;BMP180;53212;52.112;5.144;2023-04-09T07:15:53;102530.60;;;9.90
66403;BMP180;53212;52.112;5.144;2023-04-09T07:18:18;102536.80;;;9.90
66403;BMP180;53212;52.112;5.144;2023-04-09T07:20:44;102532.60;;;9.90
66403;BMP180;53212;52.112;5.144;2023-04-09T07:23:10;102535.00;;;9.98
66403;BMP180;53212;52.112;5.144;2023-04-09T07:25:36;102536.40;;;10.00
66403;BMP180;53212;52.112;5.144;2023-04-09T07:28:01;102533.40;;;10.00
66403;BMP180;53212;52.112;5.144;2023-04-09T07:30:27;102532.60;;;10.10
66403;BMP180;53212;52.112;5.144;2023-04-09T07:32:52;102532.60;;;10.10
66403;BMP180;53212;52.112;5.144;2023-04-09T07:35:18;102534.40;;;10.20
66403;BMP180;53212;52.112;5.144;2023-04-09T07:37:43;102531.20;;;10.30
66403;BMP180;53212;52.112;5.144;2023-04-09T07:40:09;102532.80;;;10.40
66403;BMP180;53212;52.112;5.144;2023-04-09T07:42:38;102529.00;;;10.50
66403;BMP180;53212;52.112;5.144;2023-04-09T07:45:05;102531.00;;;10.60
66403;BMP180;53212;52.112;5.144;2023-04-09T07:47:31;102533.00;;;10.70
66403;BMP180;53212;52.112;5.144;2023-04-09T07:49:57;102527.40;;;10.80
66403;BMP180;53212;52.112;5.144;2023-04-09T07:52:22;102526.60;;;10.90
66403;BMP180;53212;52.112;5.144;2023-04-09T07:54:48;102525.60;;;11.00
66403;BMP180;53212;52.112;5.144;2023-04-09T07:57:13;102528.60;;;11.20
66403;BMP180;53212;52.112;5.144;2023-04-09T07:59:39;102521.40;;;11.30
66403;BMP180;53212;52.112;5.144;2023-04-09T08:02:04;102522.60;;;11.40
66403;BMP180;53212;52.112;5.144;2023-04-09T08:04:30;102526.00;;;11.50
66403;BMP180;53212;52.112;5.144;2023-04-09T08:06:56;102525.20;;;11.64
66403;BMP180;53212;52.112;5.144;2023-04-09T08:09:22;102527.60;;;11.70
66403;BMP180;53212;52.112;5.144;2023-04-09T08:11:48;102528.20;;;11.70
66403;BMP180;53212;52.112;5.144;2023-04-09T08:14:15;102531.40;;;11.70
66403;BMP180;53212;52.112;5.144;2023-04-09T08:16:46;102536.00;;;11.80
66403;BMP180;53212;52.112;5.144;2023-04-09T08:19:14;102532.20;;;11.80
66403;BMP180;53212;52.112;5.144;2023-04-09T08:21:40;102535.20;;;11.80
66403;BMP180;53212;52.112;5.144;2023-04-09T08:24:11;102534.20;;;11.80
66403;BMP180;53212;52.112;5.144;2023-04-09T08:26:38;102533.00;;;11.82
66403;BMP180;53212;52.112;5.144;2023-04-09T08:29:04;102534.60;;;11.90
66403;BMP180;53212;52.112;5.144;2023-04-09T08:31:30;102532.80;;;11.90
66403;BMP180;53212;52.112;5.144;2023-04-09T08:33:56;102528.80;;;12.04
66403;BMP180;53212;52.112;5.144;2023-04-09T08:36:21;102526.00;;;12.26
66403;BMP180;53212;52.112;5.144;2023-04-09T08:38:47;102529.00;;;12.50
66403;BMP180;53212;52.112;5.144;2023-04-09T08:41:18;102525.20;;;12.68
66403;BMP180;53212;52.112;5.144;2023-04-09T08:43:46;102525.80;;;12.80
66403;BMP180;53212;52.112;5.144;2023-04-09T08:46:13;102524.60;;;13.00
66403;BMP180;53212;52.112;5.144;2023-04-09T08:48:45;102520.60;;;13.26
66403;BMP180;53212;52.112;5.144;2023-04-09T08:51:20;102521.20;;;13.56
66403;BMP180;53212;52.112;5.144;2023-04-09T08:53:56;102521.80;;;13.86
66403;BMP180;53212;52.112;5.144;2023-04-09T08:56:22;102518.20;;;14.12
66403;BMP180;53212;52.112;5.144;2023-04-09T08:58:48;102522.00;;;14.30
66403;BMP180;53212;52.112;5.144;2023-04-09T09:01:27;102519.80;;;14.40
66403;BMP180;53212;52.112;5.144;2023-04-09T09:03:55;102517.00;;;14.42
66403;BMP180;53212;52.112;5.144;2023-04-09T09:06:23;102515.00;;;14.50
66403;BMP180;53212;52.112;5.144;2023-04-09T09:11:32;102512.00;;;14.50
66403;BMP180;53212;52.112;5.144;2023-04-09T09:14:01;102510.40;;;14.50
66403;BMP180;53212;52.112;5.144;2023-04-09T09:16:27;102518.00;;;14.48
66403;BMP180;53212;52.112;5.144;2023-04-09T09:18:53;102509.20;;;14.50
66403;BMP180;53212;52.112;5.144;2023-04-09T09:21:20;102509.40;;;14.70
66403;BMP180;53212;52.112;5.144;2023-04-09T09:23:45;102510.20;;;14.70
66403;BMP180;53212;52.112;5.144;2023-04-09T09:26:29;102504.80;;;14.60
66403;BMP180;53212;52.112;5.144;2023-04-09T09:28:56;102507.00;;;14.60
66403;BMP180;53212;52.112;5.144;2023-04-09T09:31:25;102500.80;;;14.60
66403;BMP180;53212;52.112;5.144;2023-04-09T09:33:50;102494.20;;;14.50
66403;BMP180;53212;52.112;5.144;2023-04-09T09:36:31;102497.60;;;14.32
66403;BMP180;53212;52.112;5.144;2023-04-09T09:38:59;102498.80;;;14.20
66403;BMP180;53212;52.112;5.144;2023-04-09T09:41:27;102497.60;;;14.32
66403;BMP180;53212;52.112;5.144;2023-04-09T09:43:53;102489.60;;;14.40
66403;BMP180;53212;52.112;5.144;2023-04-09T09:46:20;102489.80;;;14.50
66403;BMP180;53212;52.112;5.144;2023-04-09T09:48:46;102495.80;;;14.60
66403;BMP180;53212;52.112;5.144;2023-04-09T09:51:13;102488.80;;;14.60
66403;BMP180;53212;52.112;5.144;2023-04-09T09:53:43;102488.00;;;14.60
66403;BMP180;53212;52.112;5.144;2023-04-09T09:56:22;102485.60;;;14.64
66403;BMP180;53212;52.112;5.144;2023-04-09T09:59:06;102489.20;;;14.70
66403;BMP180;53212;52.112;5.144;2023-04-09T10:01:33;102485.00;;;14.60
66403;BMP180;53212;52.112;5.144;2023-04-09T10:04:01;102480.80;;;14.50
66403;BMP180;53212;52.112;5.144;2023-04-09T10:06:27;102480.20;;;14.40
66403;BMP180;53212;52.112;5.144;2023-04-09T10:08:57;102474.60;;;14.50
66403;BMP180;53212;52.112;5.144;2023-04-09T10:11:23;102469.20;;;14.60
66403;BMP180;53212;52.112;5.144;2023-04-09T10:13:54;102469.40;;;14.80
66403;BMP180;53212;52.112;5.144;2023-04-09T10:16:20;102471.00;;;14.90
66403;BMP180;53212;52.112;5.144;2023-04-09T10:18:47;102467.20;;;14.92
66403;BMP180;53212;52.112;5.144;2023-04-09T10:24:00;102459.20;;;15.00
66403;BMP180;53212;52.112;5.144;2023-04-09T10:26:32;102454.80;;;15.10
66403;BMP180;53212;52.112;5.144;2023-04-09T10:29:07;102450.40;;;15.30
66403;BMP180;53212;52.112;5.144;2023-04-09T10:31:54;102453.40;;;15.50
66403;BMP180;53212;52.112;5.144;2023-04-09T10:34:27;102450.20;;;15.40
66403;BMP180;53212;52.112;5.144;2023-04-09T10:36:56;102448.40;;;15.40
66403;BMP180;53212;52.112;5.144;2023-04-09T10:39:32;102444.00;;;15.20
66403;BMP180;53212;52.112;5.144;2023-04-09T10:42:10;102438.80;;;15.20
66403;BMP180;53212;52.112;5.144;2023-04-09T10:44:39;102437.80;;;15.32
66403;BMP180;53212;52.112;5.144;2023-04-09T10:47:07;102438.00;;;15.40
66403;BMP180;53212;52.112;5.144;2023-04-09T10:49:38;102436.60;;;15.40
66403;BMP180;53212;52.112;5.144;2023-04-09T10:52:09;102439.60;;;15.40
66403;BMP180;53212;52.112;5.144;2023-04-09T10:59:46;102435.00;;;15.20
66403;BMP180;53212;52.112;5.144;2023-04-09T11:07:39;102437.40;;;15.60
66403;BMP180;53212;52.112;5.144;2023-04-09T11:10:08;102437.40;;;15.88
66403;BMP180;53212;52.112;5.144;2023-04-09T11:12:34;102427.80;;;16.08
66403;BMP180;53212;52.112;5.144;2023-04-09T11:14:59;102426.60;;;16.26
66403;BMP180;53212;52.112;5.144;2023-04-09T11:17:25;102421.80;;;16.50
66403;BMP180;53212;52.112;5.144;2023-04-09T11:19:51;102423.80;;;16.60
66403;BMP180;53212;52.112;5.144;2023-04-09T11:22:16;102412.20;;;16.80
66403;BMP180;53212;52.112;5.144;2023-04-09T11:24:43;102414.60;;;17.06
66403;BMP180;53212;52.112;5.144;2023-04-09T11:27:11;102415.00;;;17.20
66403;BMP180;53212;52.112;5.144;2023-04-09T11:29:36;102411.00;;;17.20
66403;BMP180;53212;52.112;5.144;2023-04-09T11:32:02;102412.00;;;17.00
66403;BMP180;53212;52.112;5.144;2023-04-09T11:34:32;102407.40;;;16.90
66403;BMP180;53212;52.112;5.144;2023-04-09T11:36:58;102410.00;;;17.00
66403;BMP180;53212;52.112;5.144;2023-04-09T11:39:27;102413.60;;;17.00
66403;BMP180;53212;52.112;5.144;2023-04-09T11:41:53;102410.80;;;17.10
66403;BMP180;53212;52.112;5.144;2023-04-09T11:44:20;102409.00;;;17.10
66403;BMP180;53212;52.112;5.144;2023-04-09T11:46:46;102405.20;;;17.10
66403;BMP180;53212;52.112;5.144;2023-04-09T11:49:13;102406.40;;;17.10
66403;BMP180;53212;52.112;5.144;2023-04-09T11:51:39;102400.40;;;17.20
66403;BMP180;53212;52.112;5.144;2023-04-09T11:54:05;102403.60;;;17.40
66403;BMP180;53212;52.112;5.144;2023-04-09T11:56:31;102398.40;;;17.56
66403;BMP180;53212;52.112;5.144;2023-04-09T11:58:57;102393.80;;;17.70
66403;BMP180;53212;52.112;5.144;2023-04-09T12:01:23;102395.80;;;17.70
66403;BMP180;53212;52.112;5.144;2023-04-09T12:03:55;102384.40;;;17.60
66403;BMP180;53212;52.112;5.144;2023-04-09T12:06:21;102383.60;;;17.60
66403;BMP180;53212;52.112;5.144;2023-04-09T12:08:57;102391.80;;;17.58
66403;BMP180;53212;52.112;5.144;2023-04-09T12:11:30;102393.00;;;17.50
66403;BMP180;53212;52.112;5.144;2023-04-09T12:14:03;102389.60;;;17.32
66403;BMP180;53212;52.112;5.144;2023-04-09T12:16:31;102382.60;;;17.38
66403;BMP180;53212;52.112;5.144;2023-04-09T12:19:02;102388.80;;;17.26
66403;BMP180;53212;52.112;5.144;2023-04-09T12:21:54;102391.80;;;17.02
66403;BMP180;53212;52.112;5.144;2023-04-09T12:24:24;102389.80;;;17.02
66403;BMP180;53212;52.112;5.144;2023-04-09T12:26:51;102394.60;;;17.12
66403;BMP180;53212;52.112;5.144;2023-04-09T12:29:19;102395.20;;;17.20
66403;BMP180;53212;52.112;5.144;2023-04-09T12:31:46;102397.20;;;17.04
66403;BMP180;53212;52.112;5.144;2023-04-09T12:34:12;102399.00;;;17.10
66403;BMP180;53212;52.112;5.144;2023-04-09T12:36:39;102394.60;;;17.20
66403;BMP180;53212;52.112;5.144;2023-04-09T12:39:07;102395.60;;;17.28
66403;BMP180;53212;52.112;5.144;2023-04-09T12:41:32;102397.40;;;17.34
66403;BMP180;53212;52.112;5.144;2023-04-09T12:43:58;102393.40;;;17.46
66403;BMP180;53212;52.112;5.144;2023-04-09T12:46:23;102393.60;;;17.40
66403;BMP180;53212;52.112;5.144;2023-04-09T12:48:49;102395.00;;;17.40
66403;BMP180;53212;52.112;5.144;2023-04-09T12:51:15;102392.40;;;17.20
66403;BMP180;53212;52.112;5.144;2023-04-09T12:53:41;102389.20;;;17.30
66403;BMP180;53212;52.112;5.144;2023-04-09T12:56:07;102387.80;;;17.30
66403;BMP180;53212;52.112;5.144;2023-04-09T12:58:32;102391.80;;;17.50
66403;BMP180;53212;52.112;5.144;2023-04-09T13:00:58;102388.60;;;17.70
66403;BMP180;53212;52.112;5.144;2023-04-09T13:03:24;102385.60;;;17.94
66403;BMP180;53212;52.112;5.144;2023-04-09T13:05:50;102387.20;;;18.00
66403;BMP180;53212;52.112;5.144;2023-04-09T13:08:16;102392.40;;;17.80
66403;BMP180;53212;52.112;5.144;2023-04-09T13:10:42;102393.00;;;17.68
66403;BMP180;53212;52.112;5.144;2023-04-09T13:13:07;102394.60;;;17.70
66403;BMP180;53212;52.112;5.144;2023-04-09T13:15:40;102394.40;;;17.80
66403;BMP180;53212;52.112;5.144;2023-04-09T13:18:08;102396.60;;;17.70
66403;BMP180;53212;52.112;5.144;2023-04-09T13:20:33;102395.00;;;17.70
66403;BMP180;53212;52.112;5.144;2023-04-09T13:22:59;102389.60;;;17.70
66403;BMP180;53212;52.112;5.144;2023-04-09T13:25:25;102382.60;;;17.70
66403;BMP180;53212;52.112;5.144;2023-04-09T13:27:50;102377.60;;;17.80
66403;BMP180;53212;52.112;5.144;2023-04-09T13:30:16;102383.80;;;17.90
66403;BMP180;53212;52.112;5.144;2023-04-09T13:32:42;102376.60;;;17.80
66403;BMP180;53212;52.112;5.144;2023-04-09T13:35:08;102370.60;;;17.60
66403;BMP180;53212;52.112;5.144;2023-04-09T13:37:35;102372.00;;;17.38
66403;BMP180;53212;52.112;5.144;2023-04-09T13:40:00;102369.80;;;17.20
66403;BMP180;53212;52.112;5.144;2023-04-09T13:42:26;102366.80;;;17.10
66403;BMP180;53212;52.112;5.144;2023-04-09T13:44:52;102356.40;;;17.10
66403;BMP180;53212;52.112;5.144;2023-04-09T13:47:18;102350.60;;;17.20
66403;BMP180;53212;52.112;5.144;2023-04-09T13:49:44;102349.40;;;17.54
66403;BMP180;53212;52.112;5.144;2023-04-09T13:52:10;102345.20;;;17.88
66403;BMP180;53212;52.112;5.144;2023-04-09T13:54:36;102346.80;;;18.14
66403;BMP180;53212;52.112;5.144;2023-04-09T13:57:02;102343.60;;;18.40
66403;BMP180;53212;52.112;5.144;2023-04-09T13:59:28;102349.80;;;18.62
66403;BMP180;53212;52.112;5.144;2023-04-09T14:01:53;102344.00;;;18.80
66403;BMP180;53212;52.112;5.144;2023-04-09T14:04:19;102342.80;;;19.00
66403;BMP180;53212;52.112;5.144;2023-04-09T14:06:45;102333.40;;;19.16
66403;BMP180;53212;52.112;5.144;2023-04-09T14:09:11;102328.40;;;19.30
66403;BMP180;53212;52.112;5.144;2023-04-09T14:11:37;102316.40;;;19.18
66403;BMP180;53212;52.112;5.144;2023-04-09T14:14:02;102323.60;;;19.00
66403;BMP180;53212;52.112;5.144;2023-04-09T14:16:28;102325.20;;;18.80
66403;BMP180;53212;52.112;5.144;2023-04-09T14:18:55;102332.20;;;18.66
66403;BMP180;53212;52.112;5.144;2023-04-09T14:21:21;102331.20;;;18.50
66403;BMP180;53212;52.112;5.144;2023-04-09T14:23:47;102322.40;;;18.50
66403;BMP180;53212;52.112;5.144;2023-04-09T14:26:12;102322.80;;;18.40
66403;BMP180;53212;52.112;5.144;2023-04-09T14:28:38;102320.20;;;18.40